createdAt,value
2023-03-07T00:05:13.176Z,93.0
2023-03-07T00:19:13.077Z,92.0
2023-03-07T00:33:13.202Z,93.0
2023-03-07T00:47:13.195Z,93.0
2023-03-07T01:04:20.608Z,93.0
2023-03-07T01:18:20.686Z,93.0
2023-03-07T01:28:02.837Z,94.0
2023-03-07T01:42:58.818Z,95.0
2023-03-07T01:56:58.856Z,95.0
2023-03-07T02:10:58.892Z,95.0
2023-03-07T02:20:06.413Z,95.0
2023-03-07T02:29:28.673Z,95.0
2023-03-07T02:36:08.297Z,95.0
2023-03-07T02:46:24.352Z,95.0
2023-03-07T02:55:48.819Z,95.0
2023-03-07T03:09:48.834Z,95.0
2023-03-07T03:23:19.947Z,94.0
2023-03-07T03:35:24.653Z,93.0
2023-03-07T03:49:24.725Z,93.0
2023-03-07T04:03:24.782Z,93.0
2023-03-07T04:12:53.268Z,93.0
2023-03-07T04:30:25.166Z,93.0
2023-03-07T04:43:34.586Z,92.0
2023-03-07T04:53:47.834Z,93.0
2023-03-07T05:06:51.347Z,93.0
2023-03-07T05:14:01.801Z,93.0
2023-03-07T05:18:36.447Z,94.0
2023-03-07T05:28:10.886Z,94.0
2023-03-07T05:39:15.282Z,94.0
2023-03-07T05:45:18.676Z,94.0
2023-03-07T05:59:35.679Z,94.0
2023-03-07T06:10:18.436Z,94.0
2023-03-07T06:18:57.112Z,94.0
2023-03-07T06:32:02.151Z,94.0
2023-03-07T06:36:53.548Z,94.0
2023-03-07T06:42:16.237Z,94.0
2023-03-07T06:57:16.291Z,94.0
2023-03-07T07:06:34.504Z,93.0
2023-03-07T07:40:17.986Z,85.0
2023-03-07T07:55:18.537Z,80.0
2023-03-07T07:58:26.128Z,79.0
2023-03-07T08:07:26.461Z,75.0
2023-03-07T08:23:31.113Z,76.0
2023-03-07T08:38:31.173Z,74.0
2023-03-07T08:53:31.409Z,71.0
2023-03-07T08:57:09.931Z,70.0
2023-03-07T09:06:46.901Z,72.0
2023-03-07T09:13:46.502Z,74.0
2023-03-07T09:40:59.368Z,72.0
2023-03-07T09:53:41.834Z,73.0
2023-03-07T10:00:10.991Z,75.0
2023-03-07T10:10:52.261Z,75.0
2023-03-07T10:26:16.296Z,73.0
2023-03-07T10:40:43.772Z,67.0
2023-03-07T10:49:26.481Z,66.0
2023-03-07T11:01:20.527Z,62.0
2023-03-07T11:11:14.270Z,63.0
2023-03-07T11:18:08.975Z,63.0
2023-03-07T11:34:09.033Z,64.0
2023-03-07T11:49:41.166Z,65.0
2023-03-07T12:06:09.108Z,61.0
2023-03-07T12:16:43.281Z,62.0
2023-03-07T12:27:18.962Z,61.0
2023-03-07T12:33:56.524Z,61.0
2023-03-07T12:43:36.605Z,63.0
2023-03-07T12:49:47.909Z,60.0
2023-03-07T13:06:39.095Z,64.0
2023-03-07T13:16:03.976Z,63.0
2023-03-07T13:24:09.248Z,64.0
2023-03-07T13:30:14.607Z,63.0
2023-03-07T13:45:14.604Z,63.0
2023-03-07T13:54:32.931Z,64.0
2023-03-07T14:06:17.857Z,64.0
2023-03-07T14:12:32.724Z,65.0
2023-03-07T14:21:46.508Z,63.0
2023-03-07T14:26:51.309Z,63.0
2023-03-07T14:39:03.777Z,65.0
2023-03-07T14:44:54.577Z,66.0
2023-03-07T14:49:35.389Z,67.0
2023-03-07T15:04:35.702Z,66.0
2023-03-07T15:09:25.964Z,67.0
2023-03-07T15:24:25.680Z,68.0
2023-03-07T15:40:33.071Z,70.0
2023-03-07T15:51:20.581Z,70.0
2023-03-07T16:06:20.669Z,69.0
2023-03-07T16:11:20.211Z,69.0
2023-03-07T16:27:51.890Z,71.0
2023-03-07T16:43:40.107Z,74.0
2023-03-07T16:59:40.023Z,77.0
2023-03-07T17:05:36.050Z,78.0
2023-03-07T17:20:36.605Z,79.0
2023-03-07T17:27:06.410Z,80.0
2023-03-07T17:45:15.020Z,80.0
2023-03-07T17:51:02.221Z,80.0
2023-03-07T18:01:51.663Z,79.0
2023-03-07T18:07:31.737Z,79.0
2023-03-07T18:21:31.673Z,80.0
2023-03-07T18:26:39.703Z,81.0
2023-03-07T18:31:35.586Z,82.0
2023-03-07T18:36:07.712Z,81.0
2023-03-07T18:49:52.426Z,81.0
2023-03-07T18:59:31.189Z,82.0
2023-03-07T19:17:57.466Z,80.0
2023-03-07T19:32:22.807Z,80.0
2023-03-07T19:46:22.789Z,82.0
2023-03-07T19:54:47.288Z,83.0
2023-03-07T20:19:31.731Z,86.0
2023-03-07T20:40:42.798Z,87.0
2023-03-07T20:56:20.406Z,85.0
2023-03-07T21:10:20.545Z,88.0
2023-03-07T21:13:36.287Z,89.0
2023-03-07T21:19:37.907Z,90.0
2023-03-07T21:39:00.216Z,91.0
2023-03-07T21:49:06.211Z,92.0
2023-03-07T21:54:58.614Z,92.0
2023-03-07T22:16:20.960Z,92.0
2023-03-07T22:30:21.614Z,92.0
2023-03-07T22:36:33.373Z,92.0
2023-03-07T22:46:15.121Z,92.0
2023-03-07T23:00:15.046Z,93.0
2023-03-07T23:08:42.580Z,94.0
2023-03-07T23:22:42.585Z,93.0
2023-03-07T23:36:42.607Z,91.0
2023-03-07T23:59:34.277Z,94.0
